Archival Weather

Norman Y Mineta San Jose Intl

San Jose, California (KSJC)

Report from: Thursday, February 8, 2024 8:53 PM PST
Current time: Monday, June 24, 2024 3:24 AM PDT

Current weather – Weather history – Daily summaries
Weather forecast

Temperature8.9°C (48.0°F)
Wind chill7.9°C (46.2°F)
Dew point4.4°C (39.9°F)
Winds 4 kts (2.1 m/s, 4.6 mph) North-Northwest (340°)
Visibility10 mi. (16.1 km)
Clouds Few clouds 3,000 ft. (914 m)
Altimeter30.07 in.Hg (1018 mB)
Relative humidity73 %
Density altitude-776 ft. (-237 m)
Sea-level pressure101.8 kPa (1018 mB, 30.07 in.Hg)
Remarks Automated weather observing station with precipitation discriminator
Flight conditions Visual Meteorological Conditions
Raw dataKSJC 090453Z 34004KT 10SM FEW030 09/04 A3007 RMK AO2 SLP182 T00890044
An error has occurred. This application may no longer respond until reloaded. Reload 🗙